Time;durP1;ratioP1;P1;durP2;ratioP2;P2;SDS_P1;SDS_P2;PMS_P1;PMS_P2;Temp;Humidity;BMP_temperature;BMP_pressure;BME280_temperature;BME280_humidity;BME280_pressure;Samples;Min_cycle;Max_cycle;Signal;HPM_P1;HPM_P2
2020/12/03 00:00:35;;;;;;;33.90;22.45;;;4.50;98.60;;;;;;10522979;28;20454;-65
2020/12/03 00:05:38;;;;;;;34.45;22.52;;;4.50;98.00;;;;;;10510527;28;20101;-65
2020/12/03 00:10:40;;;;;;;38.55;23.80;;;4.50;97.60;;;;;;10533169;28;20246;-66
2020/12/03 00:15:42;;;;;;;38.90;23.88;;;4.50;97.70;;;;;;10533040;28;20090;-66
2020/12/03 00:20:44;;;;;;;42.08;24.55;;;4.60;97.90;;;;;;10534182;28;20559;-66
2020/12/03 00:25:47;;;;;;;38.42;24.70;;;4.60;97.80;;;;;;10524678;28;20083;-65
2020/12/03 00:30:48;;;;;;;38.38;24.90;;;4.50;97.80;;;;;;10519358;28;20087;-66
2020/12/03 00:35:51;;;;;;;36.17;24.83;;;4.60;97.90;;;;;;10522401;28;20101;-65
2020/12/03 00:40:53;;;;;;;43.35;25.63;;;4.60;97.70;;;;;;10522246;28;20044;-66
2020/12/03 00:45:54;;;;;;;43.05;26.98;;;4.60;97.50;;;;;;10532123;28;20134;-66
2020/12/03 00:50:56;;;;;;;45.13;28.13;;;4.60;97.80;;;;;;10533316;28;20531;-66
2020/12/03 00:55:58;;;;;;;40.03;26.10;;;4.60;97.30;;;;;;10533624;28;20102;-66
2020/12/03 01:01:00;;;;;;;39.00;25.85;;;4.60;97.20;;;;;;10532853;28;20044;-66
2020/12/03 01:06:02;;;;;;;43.55;27.90;;;4.60;97.10;;;;;;10537041;28;20412;-66
2020/12/03 01:11:04;;;;;;;41.78;26.88;;;4.50;97.10;;;;;;10541032;28;20048;-66
2020/12/03 01:16:05;;;;;;;42.00;27.40;;;4.40;96.80;;;;;;10539939;28;20051;-65
2020/12/03 01:21:07;;;;;;;39.70;25.80;;;4.50;97.30;;;;;;10540020;28;20378;-66
2020/12/03 01:26:08;;;;;;;44.33;27.45;;;4.50;97.00;;;;;;10541268;28;20461;-66
2020/12/03 01:31:11;;;;;;;52.05;27.75;;;4.60;96.90;;;;;;10539496;28;20050;-65
2020/12/03 01:36:13;;;;;;;45.15;26.90;;;4.50;97.30;;;;;;10535169;28;20043;-66
2020/12/03 01:41:14;;;;;;;48.25;28.30;;;4.50;97.50;;;;;;10520037;28;20488;-65
2020/12/03 01:46:16;;;;;;;64.53;29.17;;;4.50;97.50;;;;;;10523238;28;20043;-65
2020/12/03 01:51:23;;;;;;;48.47;27.98;;;4.50;97.90;;;;;;10540108;28;20060;-65
2020/12/03 01:56:31;;;;;;;55.42;28.23;;;4.50;97.90;;;;;;10538131;28;20429;-65
2020/12/03 02:01:34;;;;;;;46.10;28.17;;;4.50;98.20;;;;;;10538822;28;20044;-66
2020/12/03 02:06:38;;;;;;;50.35;26.58;;;4.40;98.20;;;;;;10538464;28;20052;-65
2020/12/03 02:11:40;;;;;;;69.70;30.40;;;4.50;98.40;;;;;;10537800;28;20399;-66
2020/12/03 02:16:42;;;;;;;55.63;28.17;;;4.50;98.40;;;;;;10535691;28;20079;-65
2020/12/03 02:21:45;;;;;;;55.78;27.90;;;4.50;98.50;;;;;;10537962;28;20139;-66
2020/12/03 02:26:49;;;;;;;57.45;27.40;;;4.50;98.70;;;;;;10515484;28;20332;-65
2020/12/03 02:31:51;;;;;;;67.47;29.83;;;4.40;98.60;;;;;;10516977;28;20127;-66
2020/12/03 02:36:57;;;;;;;60.03;28.67;;;4.30;98.90;;;;;;10537290;28;20106;-66
2020/12/03 02:42:00;;;;;;;46.97;26.83;;;4.30;98.80;;;;;;10537764;28;20131;-65
2020/12/03 02:47:01;;;;;;;51.88;28.13;;;4.20;98.90;;;;;;10538653;28;20123;-65
2020/12/03 02:52:03;;;;;;;46.33;26.58;;;4.30;98.80;;;;;;10537890;28;20058;-65
2020/12/03 02:57:04;;;;;;;50.72;27.77;;;4.40;98.50;;;;;;10536267;28;20055;-65
2020/12/03 03:02:06;;;;;;;66.60;29.45;;;4.40;98.70;;;;;;10537871;28;20407;-66
2020/12/03 03:07:08;;;;;;;55.00;27.63;;;4.50;98.50;;;;;;10494257;28;20393;-66
2020/12/03 03:12:09;;;;;;;58.67;28.73;;;4.40;98.70;;;;;;10537315;28;20054;-66
2020/12/03 03:17:11;;;;;;;56.75;28.15;;;4.40;98.60;;;;;;10536631;28;20074;-65
2020/12/03 03:22:13;;;;;;;53.00;28.05;;;4.40;98.70;;;;;;10537121;28;20051;-66
2020/12/03 03:27:14;;;;;;;48.90;25.98;;;4.40;98.80;;;;;;10536351;28;20132;-65
2020/12/03 03:32:16;;;;;;;55.92;27.73;;;4.50;98.80;;;;;;10535364;28;20132;-66
2020/12/03 03:37:17;;;;;;;61.17;28.23;;;4.60;98.70;;;;;;10535993;28;20130;-65
2020/12/03 03:42:19;;;;;;;54.50;29.00;;;4.70;98.50;;;;;;10535145;28;20124;-66
2020/12/03 03:47:20;;;;;;;58.30;28.55;;;4.60;98.20;;;;;;10535784;28;20131;-65
2020/12/03 03:52:22;;;;;;;46.47;27.15;;;4.50;98.50;;;;;;10535155;28;20056;-66
2020/12/03 03:57:24;;;;;;;49.72;27.05;;;4.40;98.30;;;;;;10535147;28;20347;-65
2020/12/03 04:02:25;;;;;;;57.65;28.30;;;4.50;98.20;;;;;;10534164;28;20571;-66
2020/12/03 04:07:27;;;;;;;54.50;28.65;;;4.50;98.40;;;;;;10519480;28;20044;-65
2020/12/03 04:12:28;;;;;;;49.42;26.35;;;4.50;98.40;;;;;;10534566;28;20101;-66
2020/12/03 04:17:30;;;;;;;48.65;27.83;;;4.50;98.50;;;;;;10535007;28;20099;-66
2020/12/03 04:22:32;;;;;;;55.40;27.58;;;4.40;98.50;;;;;;10535593;28;20127;-66
2020/12/03 04:27:33;;;;;;;55.78;27.92;;;4.40;98.70;;;;;;10534357;28;20454;-66
2020/12/03 04:32:35;;;;;;;59.90;27.85;;;4.50;98.50;;;;;;10534652;28;20393;-66
2020/12/03 04:37:37;;;;;;;59.50;29.42;;;4.60;98.60;;;;;;10532697;28;20048;-66
2020/12/03 04:42:38;;;;;;;40.22;24.15;;;4.60;98.10;;;;;;10541190;28;20075;-66
2020/12/03 04:47:55;;;;;;;33.70;21.42;;;4.50;97.80;;;;;;10543191;28;20474;-66
2020/12/03 04:53:36;;;;;;;29.25;18.98;;;4.50;97.40;;;;;;10542810;28;20080;-66
2020/12/03 04:59:12;;;;;;;32.30;19.50;;;4.40;97.40;;;;;;10542680;28;20143;-66
2020/12/03 05:04:20;;;;;;;29.60;18.98;;;4.50;97.30;;;;;;10539314;28;20056;-66
2020/12/03 05:09:31;;;;;;;29.67;18.65;;;4.30;97.60;;;;;;10502531;28;20082;-66
2020/12/03 05:14:39;;;;;;;28.58;19.20;;;4.20;97.60;;;;;;10540194;28;20079;-66
2020/12/03 05:19:45;;;;;;;33.63;19.52;;;4.30;97.80;;;;;;10541557;28;20071;-65
2020/12/03 05:24:48;;;;;;;31.52;19.52;;;4.30;98.10;;;;;;10541724;28;20078;-65
2020/12/03 05:29:49;;;;;;;33.00;20.52;;;4.40;97.80;;;;;;10540247;28;20040;-66
2020/12/03 05:34:52;;;;;;;40.67;20.65;;;4.30;97.80;;;;;;10541736;28;20102;-66
2020/12/03 05:39:58;;;;;;;41.83;22.10;;;4.30;98.10;;;;;;10541432;28;20040;-65
2020/12/03 05:45:08;;;;;;;63.60;25.40;;;4.20;98.00;;;;;;10540168;28;20127;-65
2020/12/03 05:50:15;;;;;;;47.92;23.83;;;4.20;97.90;;;;;;10500794;28;20057;-65
2020/12/03 05:55:26;;;;;;;36.95;21.42;;;4.10;97.80;;;;;;10538287;28;20088;-65
2020/12/03 06:00:27;;;;;;;37.97;21.00;;;4.10;98.10;;;;;;10540200;28;20040;-65
2020/12/03 06:05:48;;;;;;;41.65;22.27;;;4.10;98.00;;;;;;10540167;28;20091;-66
2020/12/03 06:11:14;;;;;;;77.60;25.52;;;4.00;97.90;;;;;;10539615;28;20048;-66
2020/12/03 06:16:41;;;;;;;128.20;29.35;;;3.90;98.50;;;;;;10538378;28;20097;-65
2020/12/03 06:21:51;;;;;;;32.88;19.60;;;3.70;99.00;;;;;;10539546;28;20131;-66
2020/12/03 06:27:31;;;;;;;34.07;19.77;;;3.80;99.00;;;;;;10539273;28;20052;-66
2020/12/03 06:32:44;;;;;;;34.10;20.48;;;3.80;98.90;;;;;;10538417;28;20127;-65
2020/12/03 06:38:23;;;;;;;40.13;21.58;;;3.80;98.50;;;;;;10538363;28;20086;-65
2020/12/03 06:43:31;;;;;;;41.65;22.02;;;3.90;98.70;;;;;;10494955;28;20072;-66
2020/12/03 06:49:06;;;;;;;42.85;21.70;;;3.70;99.20;;;;;;10538330;28;20415;-66
2020/12/03 06:54:36;;;;;;;43.97;23.05;;;3.70;99.50;;;;;;10538028;28;20039;-65
2020/12/03 07:00:03;;;;;;;43.30;22.67;;;3.80;99.40;;;;;;10530110;28;20479;-66
2020/12/03 07:05:35;;;;;;;59.63;25.42;;;3.80;99.50;;;;;;10535265;28;20086;-66
2020/12/03 07:11:05;;;;;;;67.75;25.17;;;3.90;99.10;;;;;;10516414;28;20105;-65
2020/12/03 07:16:28;;;;;;;51.88;23.38;;;3.80;99.30;;;;;;10535583;28;20056;-65
2020/12/03 07:22:05;;;;;;;43.65;22.70;;;3.90;99.50;;;;;;10533617;28;20188;-65
2020/12/03 07:27:48;;;;;;;38.00;21.15;;;3.80;99.80;;;;;;10499599;28;20147;-65
2020/12/03 07:33:17;;;;;;;34.53;21.20;;;3.80;99.90;;;;;;10504057;28;20484;-65
2020/12/03 07:38:42;;;;;;;40.58;22.77;;;4.00;99.10;;;;;;10507055;28;20550;-65
2020/12/03 07:43:44;;;;;;;61.85;24.73;;;4.10;99.10;;;;;;10534442;28;20893;-65
2020/12/03 07:48:46;;;;;;;49.17;23.13;;;4.00;99.40;;;;;;10534375;28;20167;-65
2020/12/03 07:54:16;;;;;;;52.33;24.83;;;4.00;99.60;;;;;;10534294;28;20040;-65
2020/12/03 07:59:23;;;;;;;44.13;22.83;;;4.00;99.70;;;;;;10533779;28;20043;-66
2020/12/03 08:04:35;;;;;;;46.33;22.85;;;4.10;99.90;;;;;;10532868;28;20052;-65
2020/12/03 08:09:40;;;;;;;;;;;4.20;99.90;;;;;;10534961;28;20047;-65
2020/12/03 08:14:44;;;;;;;54.03;24.48;;;4.20;99.90;;;;;;10504392;28;19952;-65
2020/12/03 08:20:07;;;;;;;51.08;25.95;;;4.30;99.80;;;;;;10533314;28;20123;-65
2020/12/03 08:25:29;;;;;;;46.58;25.17;;;4.30;99.60;;;;;;10519039;28;20411;-65
2020/12/03 08:30:46;;;;;;;58.17;25.90;;;4.40;99.50;;;;;;10534103;28;20071;-65
2020/12/03 08:36:08;;;;;;;38.67;22.77;;;4.30;99.70;;;;;;10520086;28;20453;-65
2020/12/03 08:41:15;;;;;;;71.40;27.77;;;4.40;99.60;;;;;;10522870;28;20500;-66
2020/12/03 08:46:20;;;;;;;67.65;28.52;;;4.50;99.50;;;;;;10533257;28;20334;-65
2020/12/03 08:51:21;;;;;;;53.75;26.23;;;4.40;99.50;;;;;;10533284;28;20041;-65
2020/12/03 08:56:34;;;;;;;46.70;25.85;;;4.50;99.50;;;;;;10534173;28;20044;-66
2020/12/03 09:01:39;;;;;;;47.05;25.17;;;4.60;99.70;;;;;;10533861;28;20051;-69
2020/12/03 09:06:49;;;;;;;50.75;25.58;;;4.70;99.60;;;;;;10534366;28;20098;-69
2020/12/03 09:11:52;;;;;;;50.20;27.67;;;4.80;99.10;;;;;;10533289;28;20047;-69
2020/12/03 09:17:00;;;;;;;54.80;29.67;;;4.80;99.30;;;;;;10533225;28;20502;-69
2020/12/03 09:22:02;;;;;;;59.60;31.15;;;4.80;98.70;;;;;;10533073;28;20113;-69
2020/12/03 09:27:05;;;;;;;58.90;31.27;;;4.80;99.20;;;;;;10537340;28;20442;-69
2020/12/03 09:32:15;;;;;;;56.13;33.35;;;4.90;99.00;;;;;;10540140;28;20512;-69
2020/12/03 09:37:16;;;;;;;45.28;27.40;;;4.80;99.20;;;;;;10531568;28;20076;-69
2020/12/03 09:42:21;;;;;;;37.58;23.73;;;5.00;99.30;;;;;;10528808;28;20093;-69
2020/12/03 09:47:29;;;;;;;32.55;21.35;;;4.90;98.80;;;;;;10528678;28;20093;-69
2020/12/03 09:52:35;;;;;;;27.25;19.35;;;5.00;98.70;;;;;;10523962;28;20088;-69
2020/12/03 09:57:37;;;;;;;31.52;20.80;;;5.20;98.30;;;;;;10531035;28;20048;-69
2020/12/03 10:02:54;;;;;;;29.63;20.88;;;5.40;98.50;;;;;;10535242;28;20491;-69
2020/12/03 10:08:19;;;;;;;26.95;19.38;;;5.40;98.20;;;;;;10532732;28;20105;-69
2020/12/03 10:13:42;;;;;;;32.83;21.05;;;5.50;98.20;;;;;;10479120;28;20048;-69
2020/12/03 10:18:49;;;;;;;25.65;18.77;;;5.80;98.30;;;;;;10452432;28;20049;-69
2020/12/03 10:24:06;;;;;;;25.25;19.00;;;6.00;97.20;;;;;;10451207;28;20041;-69
2020/12/03 10:29:29;;;;;;;27.27;19.40;;;6.20;97.10;;;;;;10451649;28;20087;-69
2020/12/03 10:34:31;;;;;;;26.33;18.55;;;6.20;96.90;;;;;;10451600;28;20045;-69
2020/12/03 10:39:47;;;;;;;30.20;18.85;;;6.10;96.70;;;;;;10455178;28;20041;-69
2020/12/03 10:44:51;;;;;;;25.50;19.00;;;6.30;96.60;;;;;;10455618;28;20076;-69
2020/12/03 10:49:53;;;;;;;25.05;17.60;;;6.50;96.80;;;;;;10454245;28;20051;-69
2020/12/03 10:55:00;;;;;;;20.40;16.35;;;6.60;96.20;;;;;;10455120;28;20069;-69
2020/12/03 11:00:08;;;;;;;25.42;19.33;;;6.80;94.90;;;;;;10454632;28;20072;-69
2020/12/03 11:05:12;;;;;;;23.35;17.08;;;6.80;95.40;;;;;;10428250;28;20049;-69
2020/12/03 11:10:15;;;;;;;21.13;16.48;;;6.80;95.50;;;;;;10445258;28;20337;-69
2020/12/03 11:15:21;;;;;;;20.27;15.93;;;6.70;95.00;;;;;;10453362;28;20520;-69
2020/12/03 11:20:23;;;;;;;23.65;17.80;;;6.70;95.20;;;;;;10453375;28;20457;-69
2020/12/03 11:25:27;;;;;;;24.60;18.00;;;6.60;95.40;;;;;;10453884;28;20131;-69
2020/12/03 11:30:31;;;;;;;20.98;16.73;;;6.50;94.80;;;;;;10453143;28;20073;-69
2020/12/03 11:35:34;;;;;;;25.08;17.88;;;6.30;94.70;;;;;;10453765;28;20131;-69
2020/12/03 11:50:41;;;;;;;23.38;16.50;;;6.20;95.40;;;;;;10451665;28;20085;-70
2020/12/03 11:55:43;;;;;;;20.88;16.05;;;6.20;95.60;;;;;;10452508;28;20493;-69
2020/12/03 12:00:47;;;;;;;25.02;18.02;;;6.20;95.40;;;;;;10451809;28;20045;-69
2020/12/03 12:05:52;;;;;;;28.92;20.42;;;6.30;95.80;;;;;;10452628;28;20135;-69
2020/12/03 12:15:58;;;;;;;25.75;18.48;;;6.20;95.40;;;;;;10451297;28;20087;-69
2020/12/03 12:20:59;;;;;;;22.40;17.15;;;6.30;95.30;;;;;;10452172;28;20472;-69
2020/12/03 12:26:01;;;;;;;25.88;18.42;;;6.30;95.10;;;;;;10452453;28;20077;-69
2020/12/03 12:31:02;;;;;;;24.05;17.10;;;6.30;94.90;;;;;;10450427;28;20072;-69
2020/12/03 12:36:04;;;;;;;24.15;18.33;;;6.50;95.30;;;;;;10451954;28;20049;-69
2020/12/03 12:41:05;;;;;;;24.02;17.63;;;6.50;94.70;;;;;;10451752;28;20059;-69
2020/12/03 12:46:06;;;;;;;23.77;18.92;;;6.40;94.80;;;;;;10450901;28;20053;-69
2020/12/03 12:51:08;;;;;;;24.20;18.50;;;6.30;95.40;;;;;;10451440;28;20049;-69
2020/12/03 12:56:10;;;;;;;23.13;17.65;;;6.20;95.20;;;;;;10450263;28;20057;-69
2020/12/03 13:01:12;;;;;;;23.38;17.52;;;6.00;95.40;;;;;;10453172;28;20060;-69
2020/12/03 13:06:14;;;;;;;24.45;18.75;;;6.20;94.90;;;;;;10459002;28;20511;-68
2020/12/03 13:11:15;;;;;;;22.75;16.85;;;6.10;95.30;;;;;;10459362;28;20048;-69
2020/12/03 13:16:17;;;;;;;22.65;17.40;;;6.10;94.60;;;;;;10457293;28;20405;-69
2020/12/03 13:21:19;;;;;;;22.42;17.10;;;6.20;95.00;;;;;;10457470;28;20080;-69
2020/12/03 13:26:20;;;;;;;25.25;17.88;;;6.20;94.80;;;;;;10457378;28;20083;-70
2020/12/03 13:31:22;;;;;;;23.33;17.50;;;6.00;95.10;;;;;;10458077;28;20151;-69
2020/12/03 13:36:23;;;;;;;25.52;18.73;;;5.80;95.00;;;;;;10458312;28;20413;-69
2020/12/03 13:41:25;;;;;;;25.33;18.67;;;5.80;95.00;;;;;;10455768;28;20056;-69
2020/12/03 13:46:27;;;;;;;24.60;18.40;;;5.80;95.30;;;;;;10457859;28;20071;-70
2020/12/03 13:51:29;;;;;;;28.85;20.83;;;5.80;94.90;;;;;;10444525;28;20064;-69
2020/12/03 13:56:31;;;;;;;28.25;20.38;;;5.70;95.30;;;;;;10456465;28;20119;-69
2020/12/03 14:01:35;;;;;;;29.20;19.60;;;5.70;95.90;;;;;;10456232;28;20098;-69
2020/12/03 14:06:36;;;;;;;30.85;20.83;;;5.80;95.10;;;;;;10457018;28;20053;-69
2020/12/03 14:11:39;;;;;;;29.83;20.77;;;5.80;95.10;;;;;;10439458;28;20048;-69
2020/12/03 14:16:41;;;;;;;26.42;19.27;;;5.80;95.60;;;;;;10436468;28;20478;-69
2020/12/03 14:21:43;;;;;;;28.60;19.88;;;5.70;95.30;;;;;;10440367;28;20044;-69
2020/12/03 14:26:44;;;;;;;28.63;19.20;;;5.70;95.20;;;;;;10451944;28;20076;-69
2020/12/03 14:31:47;;;;;;;24.70;19.05;;;5.50;95.60;;;;;;10453125;28;20065;-69
2020/12/03 14:36:49;;;;;;;26.42;19.20;;;5.60;95.40;;;;;;10439674;28;20098;-69
2020/12/03 14:41:50;;;;;;;27.52;19.85;;;5.70;95.40;;;;;;10452477;28;20045;-69
2020/12/03 14:46:51;;;;;;;25.35;19.17;;;5.70;95.20;;;;;;10450454;28;20056;-69
2020/12/03 14:51:59;;;;;;;28.48;18.55;;;5.60;95.50;;;;;;10448289;28;20140;-68
2020/12/03 14:57:00;;;;;;;25.85;18.80;;;5.50;95.50;;;;;;10445891;28;20049;-69
2020/12/03 15:02:20;;;;;;;27.13;18.83;;;5.50;95.60;;;;;;10450114;28;20740;-69
2020/12/03 15:07:22;;;;;;;27.20;19.30;;;5.50;95.60;;;;;;10449852;28;20060;-69
2020/12/03 15:12:24;;;;;;;25.25;18.83;;;5.40;95.80;;;;;;10452985;28;20509;-69
2020/12/03 15:17:25;;;;;;;26.05;19.10;;;5.40;95.80;;;;;;10451682;28;20049;-69
2020/12/03 15:22:26;;;;;;;25.48;18.17;;;5.50;95.90;;;;;;10453734;28;20045;-69
2020/12/03 15:27:28;;;;;;;26.92;19.08;;;5.50;95.90;;;;;;10453258;28;20408;-68
2020/12/03 15:32:29;;;;;;;25.40;17.95;;;5.60;95.80;;;;;;10453235;28;20049;-69
2020/12/03 15:37:31;;;;;;;27.13;18.45;;;5.60;95.70;;;;;;10453280;28;20135;-68
2020/12/03 15:42:33;;;;;;;23.52;17.02;;;5.70;95.40;;;;;;10453220;28;20387;-69
2020/12/03 15:47:35;;;;;;;25.05;17.30;;;5.70;95.60;;;;;;10452792;28;20140;-69
2020/12/03 15:52:37;;;;;;;22.70;16.35;;;5.80;95.40;;;;;;10450901;28;20088;-69
2020/12/03 15:57:39;;;;;;;21.70;15.98;;;5.80;95.00;;;;;;10468451;28;20070;-69
2020/12/03 16:02:42;;;;;;;23.73;16.38;;;5.70;95.50;;;;;;10451713;28;20394;-69
2020/12/03 16:07:43;;;;;;;24.58;17.30;;;5.70;95.50;;;;;;10452238;28;20102;-68
2020/12/03 16:12:45;;;;;;;22.90;16.65;;;5.60;95.60;;;;;;10452599;28;20123;-70
2020/12/03 16:17:46;;;;;;;25.88;19.20;;;5.60;95.30;;;;;;10451063;28;20056;-70
2020/12/03 16:22:48;;;;;;;25.02;17.45;;;5.60;95.70;;;;;;10451080;28;20045;-70
2020/12/03 16:27:49;;;;;;;22.77;15.98;;;5.60;96.00;;;;;;10452819;28;20459;-70
2020/12/03 16:32:50;;;;;;;24.70;17.67;;;5.60;95.70;;;;;;10451427;28;20041;-70
2020/12/03 16:37:52;;;;;;;23.15;17.15;;;5.50;96.30;;;;;;10455052;28;20055;-70
2020/12/03 16:42:55;;;;;;;23.60;17.20;;;5.50;96.10;;;;;;10459981;28;20497;-70
2020/12/03 16:47:57;;;;;;;23.83;17.42;;;5.40;96.30;;;;;;10459237;28;20409;-70
2020/12/03 16:52:58;;;;;;;27.85;18.55;;;5.30;96.50;;;;;;10459168;28;20480;-70
2020/12/03 16:57:59;;;;;;;23.90;17.05;;;5.10;97.10;;;;;;10460297;28;20059;-67
2020/12/03 17:03:01;;;;;;;21.85;16.10;;;5.10;97.00;;;;;;10458704;28;20072;-67
2020/12/03 17:08:03;;;;;;;22.10;16.55;;;5.00;96.90;;;;;;10437590;28;20139;-67
2020/12/03 17:13:05;;;;;;;23.67;16.50;;;5.00;96.50;;;;;;10456587;28;20511;-67
2020/12/03 17:18:06;;;;;;;20.73;15.93;;;4.90;96.50;;;;;;10456022;28;20055;-67
2020/12/03 17:23:08;;;;;;;19.42;15.00;;;4.90;96.40;;;;;;10456004;28;20073;-66
2020/12/03 17:28:09;;;;;;;20.60;15.43;;;4.90;96.20;;;;;;10455850;28;20041;-67
2020/12/03 17:33:11;;;;;;;21.77;15.80;;;4.90;96.30;;;;;;10456115;28;20049;-67
2020/12/03 17:38:13;;;;;;;21.17;14.93;;;4.80;96.30;;;;;;10455525;28;20084;-67
2020/12/03 17:43:15;;;;;;;21.75;14.05;;;4.80;95.90;;;;;;10455360;28;20124;-67
2020/12/03 17:48:16;;;;;;;19.30;13.57;;;4.90;96.10;;;;;;10452586;28;20084;-67
2020/12/03 17:53:18;;;;;;;20.15;14.15;;;4.90;96.20;;;;;;10457454;28;20059;-67
2020/12/03 17:58:20;;;;;;;19.60;13.32;;;4.90;96.10;;;;;;10457578;28;20052;-67
2020/12/03 18:03:22;;;;;;;18.17;13.18;;;4.80;95.80;;;;;;10456775;28;20080;-67
2020/12/03 18:08:23;;;;;;;21.67;14.23;;;4.70;95.70;;;;;;10453743;28;20140;-67
2020/12/03 18:13:25;;;;;;;18.38;13.27;;;4.60;95.70;;;;;;10454410;28;20053;-67
2020/12/03 18:18:26;;;;;;;18.80;13.20;;;4.50;95.80;;;;;;10453976;28;20053;-67
2020/12/03 18:23:28;;;;;;;21.15;14.23;;;4.60;95.50;;;;;;10453063;28;20128;-67
2020/12/03 18:28:29;;;;;;;18.10;12.32;;;4.60;95.60;;;;;;10434969;28;20128;-67
2020/12/03 18:33:32;;;;;;;18.10;12.77;;;4.70;95.10;;;;;;10453040;28;20500;-67
2020/12/03 18:38:34;;;;;;;16.85;12.30;;;4.80;95.30;;;;;;10453225;28;20520;-67
2020/12/03 18:43:36;;;;;;;16.35;12.15;;;4.90;95.00;;;;;;10450951;28;20084;-67
2020/12/03 18:48:37;;;;;;;17.55;11.77;;;4.90;95.20;;;;;;10452686;28;20450;-67
2020/12/03 18:53:39;;;;;;;17.98;11.52;;;4.80;95.10;;;;;;10452531;28;20080;-67
2020/12/03 18:58:41;;;;;;;16.42;11.05;;;4.90;95.20;;;;;;10452895;28;20132;-67
2020/12/03 19:03:44;;;;;;;14.40;10.43;;;5.00;94.40;;;;;;10454792;28;20072;-67
2020/12/03 19:08:46;;;;;;;15.75;11.07;;;4.90;93.50;;;;;;10454334;28;20095;-67
2020/12/03 19:13:55;;;;;;;14.73;10.93;;;4.90;93.90;;;;;;10454404;28;20128;-67
2020/12/03 19:18:56;;;;;;;15.35;11.02;;;5.00;93.80;;;;;;10453970;28;20124;-67
2020/12/03 19:23:58;;;;;;;14.43;10.80;;;5.00;93.70;;;;;;10454474;28;20084;-67
2020/12/03 19:29:00;;;;;;;19.52;11.60;;;5.00;93.50;;;;;;10452206;28;20562;-67
2020/12/03 19:34:01;;;;;;;15.68;11.77;;;4.90;93.00;;;;;;10453938;28;20128;-67
2020/12/03 19:39:03;;;;;;;17.65;12.05;;;4.90;93.20;;;;;;10450952;28;20128;-67
2020/12/03 19:44:08;;;;;;;14.63;10.50;;;4.90;93.60;;;;;;10450547;28;20497;-67
2020/12/03 19:49:09;;;;;;;16.88;11.70;;;4.90;93.00;;;;;;10449770;28;20124;-67
2020/12/03 19:54:11;;;;;;;16.58;11.45;;;4.80;92.80;;;;;;10447274;28;20045;-67
2020/12/03 19:59:12;;;;;;;15.80;10.95;;;4.80;93.20;;;;;;10450644;28;20056;-67
2020/12/03 20:04:14;;;;;;;17.50;11.57;;;4.90;92.80;;;;;;10451960;28;20103;-67
2020/12/03 20:09:16;;;;;;;15.68;11.13;;;4.90;92.60;;;;;;10451632;28;20452;-67
2020/12/03 20:14:18;;;;;;;14.57;10.77;;;4.90;92.70;;;;;;10467299;28;20132;-67
2020/12/03 20:19:21;;;;;;;16.35;11.00;;;4.80;92.40;;;;;;10452218;28;20076;-67
2020/12/03 20:24:24;;;;;;;16.48;11.45;;;4.90;92.70;;;;;;10452436;28;20132;-67
2020/12/03 20:29:29;;;;;;;16.05;11.52;;;4.90;92.40;;;;;;10452280;28;20049;-67
2020/12/03 20:34:34;;;;;;;14.68;11.00;;;4.80;92.40;;;;;;10452121;28;20515;-67
2020/12/03 20:39:38;;;;;;;13.93;10.23;;;4.80;92.60;;;;;;10451393;28;20091;-67
2020/12/03 20:44:40;;;;;;;18.08;10.68;;;4.80;92.40;;;;;;10450667;28;20076;-68
2020/12/03 20:49:42;;;;;;;15.02;10.85;;;4.90;92.50;;;;;;10450938;28;20532;-67
2020/12/03 20:54:44;;;;;;;16.42;11.18;;;5.00;92.20;;;;;;10451087;28;20045;-68
2020/12/03 20:59:46;;;;;;;15.23;10.55;;;5.00;92.00;;;;;;10465802;28;20052;-67
2020/12/03 21:04:48;;;;;;;15.55;10.50;;;5.00;92.00;;;;;;10449481;28;20075;-67
2020/12/03 21:09:49;;;;;;;15.63;10.30;;;5.00;92.00;;;;;;10450402;28;20048;-67
2020/12/03 21:14:51;;;;;;;15.27;10.60;;;5.00;91.80;;;;;;10450300;28;20049;-67
2020/12/03 21:19:53;;;;;;;14.80;10.25;;;4.90;91.80;;;;;;10464741;28;20123;-67
2020/12/03 21:24:54;;;;;;;17.17;11.27;;;4.90;91.90;;;;;;10455969;28;20501;-68
2020/12/03 21:29:59;;;;;;;14.93;9.93;;;4.80;91.90;;;;;;10457188;28;20547;-67
2020/12/03 21:35:01;;;;;;;16.45;10.27;;;4.80;92.50;;;;;;10456287;28;20053;-68
2020/12/03 21:40:03;;;;;;;16.10;10.13;;;4.70;91.90;;;;;;10457284;28;20389;-67
2020/12/03 21:45:05;;;;;;;14.68;10.45;;;4.80;92.10;;;;;;10456808;28;20285;-68
2020/12/03 21:50:06;;;;;;;15.75;10.88;;;4.80;91.90;;;;;;10454951;28;20124;-67
2020/12/03 21:55:08;;;;;;;16.95;11.38;;;4.90;92.00;;;;;;10442671;28;20586;-68
2020/12/03 22:00:10;;;;;;;16.65;11.20;;;4.80;91.90;;;;;;10449324;28;20121;-67
2020/12/03 22:05:11;;;;;;;13.43;10.00;;;4.80;91.70;;;;;;10438300;28;20140;-67
2020/12/03 22:10:13;;;;;;;13.75;10.40;;;4.80;92.00;;;;;;10450126;28;20080;-67
2020/12/03 22:15:15;;;;;;;15.30;10.07;;;4.80;91.90;;;;;;10438748;28;20517;-67
2020/12/03 22:20:17;;;;;;;17.70;10.77;;;4.80;91.90;;;;;;10448484;28;20139;-67
2020/12/03 22:25:18;;;;;;;14.85;10.80;;;4.70;91.90;;;;;;10446621;28;20068;-67
2020/12/03 22:30:20;;;;;;;14.30;10.32;;;4.70;92.00;;;;;;10442274;28;20530;-67
2020/12/03 22:35:21;;;;;;;14.43;10.48;;;4.70;92.10;;;;;;10419843;28;20069;-67
2020/12/03 22:40:23;;;;;;;16.25;10.45;;;4.60;92.30;;;;;;10453227;28;20052;-67
2020/12/03 22:45:24;;;;;;;15.40;10.63;;;4.70;92.30;;;;;;10453173;28;20473;-67
2020/12/03 22:50:29;;;;;;;15.13;10.20;;;4.80;92.20;;;;;;10453144;28;20052;-67
2020/12/03 22:55:30;;;;;;;14.45;10.05;;;4.70;92.30;;;;;;10453179;28;20056;-67
2020/12/03 23:00:32;;;;;;;13.77;10.20;;;4.80;92.10;;;;;;10452950;28;20080;-67
2020/12/03 23:05:37;;;;;;;14.30;9.95;;;4.80;92.20;;;;;;10453157;28;20084;-67
2020/12/03 23:10:41;;;;;;;14.60;10.30;;;4.80;92.50;;;;;;10454036;28;20053;-67
2020/12/03 23:15:44;;;;;;;14.65;10.70;;;4.90;92.70;;;;;;10452156;28;20049;-67
2020/12/03 23:20:47;;;;;;;14.75;10.68;;;4.70;92.20;;;;;;10451128;28;20045;-67
2020/12/03 23:25:49;;;;;;;14.88;10.68;;;4.70;92.40;;;;;;10452206;28;20139;-67
2020/12/03 23:30:52;;;;;;;15.48;11.30;;;4.70;92.20;;;;;;10451284;28;20381;-67
2020/12/03 23:35:54;;;;;;;16.55;10.48;;;4.70;92.50;;;;;;10449234;28;20057;-67
2020/12/03 23:40:55;;;;;;;13.07;9.73;;;4.90;92.40;;;;;;10451037;28;20501;-67
2020/12/03 23:45:57;;;;;;;13.25;10.57;;;4.80;92.40;;;;;;10442231;28;20127;-67
2020/12/03 23:50:58;;;;;;;13.63;10.00;;;4.80;92.20;;;;;;10445489;28;20041;-67
2020/12/03 23:56:00;;;;;;;15.30;11.70;;;4.80;92.10;;;;;;10450962;28;20099;-67
